Piedmont, SD (57769)

11:29 AM MDT on August 26, 2016 (GMT -0600)
Elk Creek/Running Deer Trail | | Change Station

Elev 3225 ft 44.24 °N, 103.31 °W | Updated 11 seconds ago

Mostly Cloudy
Mostly Cloudy
61.3 °F
Feels Like 61.3 °F
N
11.0
Wind Variable Wind from SE
Gusts 11.0 mph

Today
High -- | Low -- °F
--% Chance of Precip.
Yesterday
High -- | Low -- °F
Precip. -- in
Pressure 30.11 in
Visibility -9999.0 miles
Clouds Mostly Cloudy 1500 ft
Dew Point 52 °F
Humidity 70%
Rainfall 0.18 in
Snow Depth Not available.
6:09 AM 7:38 PM
Waning Crescent, 33% visible
SPECI KRCA 261724Z AUTO 16008KT M M BKN015 15/11 A3011 RMK AO2 $
Pressure 30.11 in
Visibility -9999.0 miles
Clouds Mostly Cloudy 1500 ft
Dew Point 52 °F
Humidity 70%
Rainfall 0.18 in
Snow Depth Not available.
6:09 AM 7:38 PM
Waning Crescent, 33% visible
SPECI KRCA 261724Z AUTO 16008KT M M BKN015 15/11 A3011 RMK AO2 $

10-Day Weather Forecast

Almanac

Astronomy

Aug. 26, 2016 Rise Set
Actual Time
Civil Twilight
Nautical Twilight
Astronomical Twilight
Moon
Length of Visible Light
Length of Day
Tomorrow will be .
, % of the Moon is Illuminated

Today's Extremes

State Highs State Lows

Community

WunderPhotos

Upload Photos

1,935,145 photos uploaded!

WunderBlog® & News

Nearby

Air Quality

  Air Quality AQ Index Pollutant
Not available.

Snow Depth

Station Depth Elevation

Earthquake Activity

City Distance Mag. Time & Date
Minimum magnitude displayed is 2.5.

Coastal Water Temperatures

Place Temperature

Stations

Nearby Weather Stations

Station Location Temp. Windchill Dew Point Humidity Wind Precip. Elev Updated Type
                   

Watches & Warnings

There are currently no watches in effect.